Time;durP1;ratioP1;P1;durP2;ratioP2;P2;SDS_P1;SDS_P2;PMS_P1;PMS_P2;Temp;Humidity;BMP_temperature;BMP_pressure;BME280_temperature;BME280_humidity;BME280_pressure;Samples;Min_cycle;Max_cycle;Signal;HPM_P1;HPM_P2
2022/01/29 00:00:22;;;;;;;1.03;0.82;;;;;;;;;;363441;144;857509;-62
2022/01/29 00:01:24;;;;;;;0.96;0.70;;;;;;;;;;362222;144;857168;-63
2022/01/29 00:02:25;;;;;;;2.55;0.93;;;;;;;;;;362606;146;858410;-62
2022/01/29 00:03:30;;;;;;;0.81;0.81;;;;;;;;;;362571;144;857249;-63
2022/01/29 00:04:31;;;;;;;0.87;0.76;;;;;;;;;;362510;145;858054;-63
2022/01/29 00:05:32;;;;;;;0.81;0.81;;;;;;;;;;362786;144;857332;-62
2022/01/29 00:06:34;;;;;;;0.76;0.61;;;;;;;;;;362984;146;864967;-64
2022/01/29 00:07:38;;;;;;;0.99;0.90;;;;;;;;;;363076;144;864780;-63
2022/01/29 00:08:39;;;;;;;0.82;0.71;;;;;;;;;;363082;144;864250;-63
2022/01/29 00:09:43;;;;;;;1.64;1.01;;;;;;;;;;363416;146;857256;-63
2022/01/29 00:10:47;;;;;;;1.27;0.89;;;;;;;;;;363134;144;864384;-64
2022/01/29 00:11:48;;;;;;;0.70;0.70;;;;;;;;;;362737;144;856224;-63
2022/01/29 00:12:49;;;;;;;0.61;0.61;;;;;;;;;;363576;146;863889;-64
2022/01/29 00:13:52;;;;;;;0.83;0.72;;;;;;;;;;363522;146;864007;-63
2022/01/29 00:14:53;;;;;;;0.87;0.61;;;;;;;;;;363366;144;856512;-63
2022/01/29 00:15:55;;;;;;;0.79;0.74;;;;;;;;;;363407;144;856360;-63
2022/01/29 00:16:56;;;;;;;1.04;0.77;;;;;;;;;;364464;146;860257;-63
2022/01/29 00:17:58;;;;;;;1.49;0.94;;;;;;;;;;362711;144;856314;-63
2022/01/29 00:18:59;;;;;;;1.29;1.04;;;;;;;;;;363069;144;856169;-63
2022/01/29 00:20:01;;;;;;;1.04;0.69;;;;;;;;;;362765;146;861215;-63
2022/01/29 00:23:03;;;;;;;0.76;0.68;;;;;;;1.22;78.13;98872.97;370095;141;880791;-63
2022/01/29 00:24:06;;;;;;;0.73;0.71;;;;;;;1.08;78.28;98871.10;363181;147;857095;-62
2022/01/29 00:25:09;;;;;;;1.75;0.78;;;;;;;1.06;78.33;98874.45;362185;146;856466;-62
2022/01/29 00:26:12;;;;;;;0.86;0.61;;;;;;;1.00;78.56;98872.70;362440;146;864932;-62
2022/01/29 00:27:14;;;;;;;0.55;0.55;;;;;;;;;;362236;147;856132;-62
2022/01/29 00:28:15;;;;;;;0.59;0.57;;;;;;;;;;363713;147;857713;-62
2022/01/29 00:29:20;;;;;;;0.67;0.67;;;;;;;;;;363739;146;857531;-63
2022/01/29 00:30:25;;;;;;;0.74;0.62;;;;;;;;;;361623;147;859625;-62
2022/01/29 00:31:24;;;;;;;0.65;0.65;;;;;;;;;;365107;147;857173;-63
2022/01/29 00:32:27;;;;;;;0.64;0.48;;;;;;;;;;362754;146;857190;-63
2022/01/29 00:33:28;;;;;;;0.50;0.50;;;;;;;;;;364521;147;866521;-63
2022/01/29 00:34:30;;;;;;;0.68;0.50;;;;;;;;;;363555;147;857734;-62
2022/01/29 00:35:31;;;;;;;1.01;0.79;;;;;;;;;;363969;147;867562;-63
2022/01/29 00:36:33;;;;;;;1.05;0.80;;;;;;;;;;363782;146;864910;-62
2022/01/29 00:37:35;;;;;;;0.77;0.72;;;;;;;;;;361911;147;858825;-62
2022/01/29 00:38:36;;;;;;;0.80;0.80;;;;;;;;;;361418;147;864775;-62
2022/01/29 00:39:38;;;;;;;0.61;0.61;;;;;;;;;;362243;147;865820;-62
2022/01/29 00:40:40;;;;;;;1.75;0.70;;;;;;;;;;360828;146;858344;-61
2022/01/29 00:41:42;;;;;;;1.33;0.75;;;;;;;;;;359145;147;857285;-62
2022/01/29 00:42:44;;;;;;;0.76;0.60;;;;;;;;;;362609;147;857289;-63
2022/01/29 00:43:45;;;;;;;0.50;0.45;;;;;;;;;;361514;147;865741;-63
2022/01/29 00:44:47;;;;;;;0.60;0.60;;;;;;;;;;361923;147;865313;-62
2022/01/29 00:45:49;;;;;;;0.70;0.69;;;;;;;;;;363902;147;866168;-62
2022/01/29 00:46:50;;;;;;;1.56;0.91;;;;;;;;;;362812;147;864880;-64
2022/01/29 00:47:52;;;;;;;1.19;0.83;;;;;;;;;;363087;147;864504;-63
2022/01/29 00:48:54;;;;;;;2.22;0.85;;;;;;;;;;363340;147;857582;-64
2022/01/29 00:49:56;;;;;;;0.94;0.76;;;;;;;;;;362534;146;858802;-63
2022/01/29 00:51:00;;;;;;;0.79;0.79;;;;;;;;;;362431;147;860316;-63
2022/01/29 00:52:01;;;;;;;1.00;0.93;;;;;;;;;;363062;146;864735;-62
2022/01/29 00:53:02;;;;;;;1.38;0.86;;;;;;;;;;362527;147;857830;-62
2022/01/29 00:54:04;;;;;;;1.14;0.70;;;;;;;;;;362913;147;864773;-63
2022/01/29 00:55:08;;;;;;;0.87;0.76;;;;;;;;;;360493;147;857345;-62
2022/01/29 00:56:10;;;;;;;1.46;0.75;;;;;;;;;;361349;147;863795;-62
2022/01/29 00:57:12;;;;;;;0.63;0.62;;;;;;;;;;360601;147;857681;-63
2022/01/29 00:58:14;;;;;;;2.24;0.80;;;;;;;;;;361448;146;858780;-62
2022/01/29 00:59:15;;;;;;;3.85;0.84;;;;;;;;;;363505;147;864832;-62
2022/01/29 01:00:17;;;;;;;0.95;0.70;;;;;;;;;;361487;147;864671;-62
2022/01/29 01:01:19;;;;;;;0.60;0.60;;;;;;;;;;363471;147;864799;-62
2022/01/29 01:02:20;;;;;;;1.53;0.93;;;;;;;;;;358795;147;864868;-62
2022/01/29 01:03:22;;;;;;;0.55;0.55;;;;;;;;;;361717;147;859819;-63
2022/01/29 01:04:24;;;;;;;0.74;0.74;;;;;;;;;;362405;147;858648;-62
2022/01/29 01:05:25;;;;;;;0.69;0.69;;;;;;;;;;359772;147;859687;-62
2022/01/29 01:06:27;;;;;;;0.57;0.53;;;;;;;;;;362465;147;857922;-62
2022/01/29 01:07:29;;;;;;;0.70;0.66;;;;;;;;;;363511;145;865570;-64
2022/01/29 01:08:30;;;;;;;1.40;0.76;;;;;;;;;;360126;147;857453;-62
2022/01/29 01:09:32;;;;;;;1.28;0.73;;;;;;;;;;361351;147;866872;-62
2022/01/29 01:10:34;;;;;;;0.74;0.70;;;;;;;;;;363120;147;865354;-62
2022/01/29 01:11:35;;;;;;;0.73;0.73;;;;;;;;;;362536;147;865682;-63
2022/01/29 01:12:37;;;;;;;0.71;0.71;;;;;;;;;;358196;147;864729;-62
2022/01/29 01:13:39;;;;;;;1.04;0.70;;;;;;;;;;361696;147;857369;-63
2022/01/29 01:22:55;;;;;;;0.75;0.60;;;;;;;0.90;79.21;98904.84;371345;142;881320;-63
2022/01/29 01:23:57;;;;;;;1.32;0.62;;;;;;;0.80;79.10;98915.73;360964;147;857931;-63
2022/01/29 01:24:59;;;;;;;0.62;0.61;;;;;;;0.79;79.12;98914.02;362445;146;857226;-63
2022/01/29 01:26:02;;;;;;;0.60;0.60;;;;;;;0.79;79.18;98914.02;361790;146;864699;-63
2022/01/29 01:27:04;;;;;;;0.50;0.50;;;;;;;0.83;79.24;98918.33;362042;147;865666;-62
2022/01/29 01:28:07;;;;;;;1.54;0.76;;;;;;;0.88;79.02;98916.70;361205;146;856579;-62
2022/01/29 01:29:08;;;;;;;0.50;0.50;;;;;;;0.93;78.81;98920.17;362766;146;859005;-63
2022/01/29 01:30:12;;;;;;;1.52;0.57;;;;;;;0.97;78.70;98919.37;361850;147;859615;-63
2022/01/29 01:31:14;;;;;;;0.69;0.51;;;;;;;1.01;78.69;98913.48;360836;147;857736;-63
2022/01/29 01:32:16;;;;;;;0.54;0.39;;;;;;;1.07;78.58;98914.44;362756;147;858822;-63
2022/01/29 01:33:18;;;;;;;0.28;0.28;;;;;;;1.14;78.45;98929.83;360732;146;864883;-63
2022/01/29 01:34:21;;;;;;;0.35;0.35;;;;;;;1.20;78.30;98913.77;361463;147;857263;-63
2022/01/29 01:35:29;;;;;;;0.42;0.40;;;;;;;1.28;78.28;98924.92;361995;146;864856;-64
2022/01/29 01:36:27;;;;;;;0.79;0.38;;;;;;;1.37;78.25;98926.72;362951;146;864763;-63
2022/01/29 01:38:48;;;;;;;0.30;0.30;;;;;;;1.54;77.39;98928.62;339958;155;857375;-63
2022/01/29 01:39:43;;;;;;;0.62;0.43;;;;;;;1.60;77.19;98929.56;354018;146;858256;-64
2022/01/29 01:40:50;;;;;;;0.24;0.24;;;;;;;1.69;76.94;98933.94;361302;147;857142;-63
2022/01/29 01:42:02;;;;;;;0.61;0.54;;;;;;;1.78;76.53;98932.33;356689;147;857953;-64
2022/01/29 01:43:00;;;;;;;0.66;0.40;;;;;;;1.82;75.75;98939.17;358056;147;859627;-64
2022/01/29 01:44:03;;;;;;;0.36;0.36;;;;;;;1.82;75.73;98931.52;357531;147;858895;-63
2022/01/29 01:45:06;;;;;;;0.37;0.36;;;;;;;1.85;75.85;98942.60;356803;147;865662;-63
2022/01/29 01:46:08;;;;;;;0.33;0.33;;;;;;;1.85;75.87;98940.05;359116;148;864681;-64
2022/01/29 01:47:10;;;;;;;0.51;0.42;;;;;;;1.86;75.46;98944.31;359335;147;857843;-63
2022/01/29 01:48:12;;;;;;;0.30;0.30;;;;;;;1.86;75.50;98943.47;359626;147;863807;-64
2022/01/29 01:49:15;;;;;;;0.33;0.33;;;;;;;1.86;75.45;98944.31;359055;147;863728;-63
2022/01/29 01:50:20;;;;;;;0.37;0.37;;;;;;;1.84;75.02;98951.09;359679;147;863671;-64
2022/01/29 01:51:21;;;;;;;1.32;0.49;;;;;;;1.85;75.41;98940.05;358983;147;856613;-63
2022/01/29 01:52:23;;;;;;;0.54;0.40;;;;;;;1.90;75.55;98953.72;359446;148;856516;-64
2022/01/29 01:53:25;;;;;;;0.46;0.29;;;;;;;1.89;75.04;98957.11;358375;148;865090;-64
2022/01/29 01:54:27;;;;;;;0.44;0.44;;;;;;;1.92;75.28;98953.75;359551;148;863605;-63
2022/01/29 01:55:29;;;;;;;0.73;0.36;;;;;;;1.87;74.88;98946.03;358048;147;864674;-64
2022/01/29 01:56:30;;;;;;;0.49;0.39;;;;;;;1.89;75.31;98946.91;358943;147;856042;-64
2022/01/29 01:57:32;;;;;;;1.30;0.41;;;;;;;1.93;75.16;98957.14;359071;148;856580;-64
2022/01/29 01:58:34;;;;;;;0.51;0.40;;;;;;;1.93;74.93;98957.14;359483;147;856793;-63
2022/01/29 01:59:36;;;;;;;0.53;0.41;;;;;;;1.96;74.75;98955.50;359546;147;863645;-63
2022/01/29 02:00:38;;;;;;;0.27;0.25;;;;;;;1.97;74.85;98949.55;359079;147;855944;-63
2022/01/29 02:03:22;;;;;;;0.36;0.32;;;;;;;2.01;74.79;98958.95;412383;130;867772;-64
2022/01/29 02:04:24;;;;;;;0.50;0.43;;;;;;;1.88;74.57;98964.77;399026;132;857323;-63
2022/01/29 02:05:26;;;;;;;0.54;0.50;;;;;;;1.92;74.95;98963.09;398065;133;857252;-64
2022/01/29 02:06:29;;;;;;;0.33;0.33;;;;;;;1.94;74.97;98969.94;399321;132;865731;-64
2022/01/29 02:07:31;;;;;;;0.89;0.47;;;;;;;1.95;74.72;98965.67;397614;132;858903;-62
2022/01/29 02:08:32;;;;;;;0.54;0.30;;;;;;;1.95;74.66;98970.78;398587;133;857605;-64
2022/01/29 02:09:37;;;;;;;0.48;0.40;;;;;;;1.95;74.52;98966.55;403013;132;866942;-62
2022/01/29 02:10:38;;;;;;;0.41;0.36;;;;;;;1.98;74.52;98974.24;398419;132;865657;-65
2022/01/29 02:11:48;;;;;;;0.49;0.49;;;;;;;1.99;74.11;98967.42;402582;132;861268;-64
2022/01/29 02:12:57;;;;;;;;;;;;;;;2.00;74.18;98977.67;401945;133;857683;-63
2022/01/29 02:14:00;;;;;;;0.45;0.45;;;;;;;1.97;74.08;98969.98;399188;133;856412;-64
2022/01/29 02:15:05;;;;;;;0.51;0.40;;;;;;;1.93;74.28;98972.46;399181;132;857201;-62
2022/01/29 02:16:06;;;;;;;0.66;0.36;;;;;;;1.92;74.28;98976.73;399109;133;859041;-65
2022/01/29 02:17:08;;;;;;;0.52;0.48;;;;;;;1.92;74.42;98978.41;399443;132;859581;-62
2022/01/29 02:18:14;;;;;;;1.24;0.47;;;;;;;1.87;74.39;98983.48;398488;132;864991;-63
2022/01/29 02:19:14;;;;;;;0.44;0.35;;;;;;;1.87;74.25;98979.22;397281;133;859494;-63
2022/01/29 02:20:22;;;;;;;0.60;0.47;;;;;;;1.92;74.58;98981.84;398340;132;864832;-63
2022/01/29 02:21:27;;;;;;;0.40;0.40;;;;;;;1.81;74.29;98979.14;398078;132;857123;-63
2022/01/29 02:22:29;;;;;;;0.83;0.48;;;;;;;1.78;74.49;98986.77;398056;132;857200;-63
2022/01/29 02:23:31;;;;;;;0.73;0.42;;;;;;;1.82;74.78;98985.13;401894;133;857175;-63
2022/01/29 02:24:33;;;;;;;0.43;0.30;;;;;;;;;;397547;132;864671;-63
2022/01/29 02:25:36;;;;;;;0.43;0.31;;;;;;;;;;397862;132;857276;-64
2022/01/29 02:26:38;;;;;;;0.48;0.48;;;;;;;;;;397245;133;864816;-63
2022/01/29 02:27:40;;;;;;;0.40;0.40;;;;;;;;;;398932;133;865770;-63
2022/01/29 02:28:42;;;;;;;0.40;0.40;;;;;;;;;;400004;132;865510;-64
2022/01/29 02:29:44;;;;;;;0.32;0.32;;;;;;;;;;399613;132;864761;-63
2022/01/29 02:30:47;;;;;;;0.50;0.50;;;;;;;;;;403440;132;866143;-64
2022/01/29 02:31:50;;;;;;;0.44;0.44;;;;;;;;;;399565;132;859208;-63
2022/01/29 02:32:52;;;;;;;0.51;0.47;;;;;;;;;;397537;132;859569;-63
2022/01/29 02:33:53;;;;;;;0.42;0.40;;;;;;;;;;397706;133;857771;-63
2022/01/29 02:34:55;;;;;;;1.14;0.49;;;;;;;;;;398844;132;865629;-63
2022/01/29 02:35:57;;;;;;;0.50;0.46;;;;;;;;;;397582;132;865143;-63
2022/01/29 02:37:00;;;;;;;0.55;0.50;;;;;;;;;;399060;133;864782;-63
2022/01/29 02:38:02;;;;;;;0.58;0.58;;;;;;;;;;401816;133;857671;-63
2022/01/29 02:39:04;;;;;;;0.63;0.63;;;;;;;;;;399023;132;857604;-63
2022/01/29 02:40:06;;;;;;;1.44;0.50;;;;;;;;;;397326;133;857147;-63
2022/01/29 02:41:08;;;;;;;0.55;0.48;;;;;;;;;;397233;134;857449;-64
2022/01/29 02:42:10;;;;;;;0.85;0.64;;;;;;;;;;399150;133;857247;-63
2022/01/29 02:43:16;;;;;;;0.71;0.50;;;;;;;;;;400667;132;857231;-63
2022/01/29 02:44:21;;;;;;;0.53;0.53;;;;;;;;;;399095;133;862392;-64
2022/01/29 02:45:22;;;;;;;0.62;0.58;;;;;;;;;;398165;133;857135;-63
2022/01/29 02:46:41;;;;;;;0.58;0.58;;;;;;;;;;398363;132;857804;-63
2022/01/29 02:47:33;;;;;;;1.40;0.52;;;;;;;;;;396691;133;857784;-63
2022/01/29 02:48:34;;;;;;;0.56;0.56;;;;;;;;;;397337;133;857674;-63
2022/01/29 02:49:36;;;;;;;0.61;0.61;;;;;;;;;;398587;132;857645;-64
2022/01/29 02:50:38;;;;;;;0.77;0.64;;;;;;;;;;399006;133;864760;-64
2022/01/29 02:51:44;;;;;;;0.51;0.49;;;;;;;;;;400185;133;864818;-64
2022/01/29 02:52:46;;;;;;;0.71;0.63;;;;;;;;;;398250;132;864736;-63
2022/01/29 02:53:47;;;;;;;0.62;0.62;;;;;;;;;;397296;133;858710;-63
2022/01/29 02:54:49;;;;;;;0.76;0.50;;;;;;;;;;397975;133;866713;-63
2022/01/29 02:55:51;;;;;;;1.31;0.50;;;;;;;;;;397928;132;866571;-63
2022/01/29 02:56:53;;;;;;;0.50;0.50;;;;;;;;;;400587;132;864913;-63
2022/01/29 02:57:55;;;;;;;0.71;0.66;;;;;;;;;;397979;133;857315;-63
2022/01/29 02:58:57;;;;;;;0.57;0.41;;;;;;;;;;398332;133;857101;-63
2022/01/29 03:00:00;;;;;;;0.69;0.57;;;;;;;;;;398374;132;856914;-63
2022/01/29 03:01:02;;;;;;;0.69;0.69;;;;;;;;;;399262;133;857170;-62
2022/01/29 03:02:03;;;;;;;0.51;0.50;;;;;;;;;;398821;133;858486;-63
2022/01/29 03:03:05;;;;;;;0.52;0.52;;;;;;;;;;398354;132;856335;-63
2022/01/29 03:04:07;;;;;;;1.00;0.50;;;;;;;;;;397748;132;862470;-63
2022/01/29 03:05:09;;;;;;;0.46;0.46;;;;;;;;;;398166;133;856615;-63
2022/01/29 03:06:11;;;;;;;0.77;0.75;;;;;;;;;;398405;132;863833;-63
2022/01/29 03:07:12;;;;;;;1.04;0.69;;;;;;;;;;398782;132;857510;-63
2022/01/29 03:08:14;;;;;;;0.62;0.61;;;;;;;;;;398466;133;863757;-64
2022/01/29 03:09:15;;;;;;;0.66;0.63;;;;;;;;;;397494;132;857421;-64
2022/01/29 03:10:19;;;;;;;0.66;0.66;;;;;;;;;;398504;132;860404;-64
2022/01/29 03:11:20;;;;;;;0.74;0.72;;;;;;;;;;398538;132;858890;-64
2022/01/29 03:12:22;;;;;;;0.63;0.54;;;;;;;;;;397176;133;864848;-63
2022/01/29 03:13:23;;;;;;;0.67;0.66;;;;;;;;;;398744;133;865278;-63
2022/01/29 03:14:25;;;;;;;1.14;0.70;;;;;;;;;;402659;132;858066;-63
2022/01/29 03:15:26;;;;;;;0.61;0.61;;;;;;;;;;398920;133;861643;-64
2022/01/29 03:16:28;;;;;;;1.16;0.67;;;;;;;;;;399692;133;866505;-64
2022/01/29 03:17:30;;;;;;;0.76;0.76;;;;;;;;;;398403;132;866555;-63
2022/01/29 03:18:31;;;;;;;0.74;0.74;;;;;;;;;;399215;133;857186;-64
2022/01/29 03:19:33;;;;;;;0.64;0.64;;;;;;;;;;397530;133;859033;-64
2022/01/29 03:20:35;;;;;;;0.84;0.76;;;;;;;;;;398873;132;863392;-63
2022/01/29 03:21:37;;;;;;;1.95;0.71;;;;;;;;;;397404;132;858785;-62
2022/01/29 03:22:39;;;;;;;0.67;0.67;;;;;;;;;;397979;133;858067;-63
2022/01/29 03:23:41;;;;;;;0.51;0.51;;;;;;;;;;398097;133;865789;-63
2022/01/29 03:24:43;;;;;;;1.03;0.67;;;;;;;;;;398814;132;856177;-63
2022/01/29 03:25:44;;;;;;;0.56;0.56;;;;;;;;;;398425;133;856563;-63
2022/01/29 03:26:46;;;;;;;0.66;0.60;;;;;;;;;;397751;133;863573;-63
2022/01/29 03:27:48;;;;;;;0.79;0.70;;;;;;;;;;399775;132;863820;-63
2022/01/29 03:28:50;;;;;;;0.53;0.53;;;;;;;;;;398833;132;863734;-63
2022/01/29 03:29:52;;;;;;;0.71;0.70;;;;;;;;;;397548;133;863758;-63
2022/01/29 03:30:55;;;;;;;0.71;0.51;;;;;;;;;;399738;133;864028;-63
2022/01/29 03:31:57;;;;;;;0.74;0.61;;;;;;;;;;399642;132;856279;-64
2022/01/29 03:32:58;;;;;;;0.50;0.50;;;;;;;;;;399142;133;856080;-64
2022/01/29 03:34:00;;;;;;;3.62;0.95;;;;;;;;;;398605;132;856433;-63
2022/01/29 03:35:02;;;;;;;1.09;0.69;;;;;;;;;;397797;132;856355;-63
2022/01/29 03:36:05;;;;;;;1.13;0.79;;;;;;;;;;401556;133;856096;-64
2022/01/29 03:37:07;;;;;;;0.67;0.64;;;;;;;;;;397656;133;856145;-64
2022/01/29 03:38:08;;;;;;;0.59;0.47;;;;;;;;;;385314;136;856896;-63
2022/01/29 03:39:10;;;;;;;2.60;0.96;;;;;;;;;;384079;138;863584;-63
2022/01/29 03:40:13;;;;;;;0.88;0.85;;;;;;;;;;401136;133;855950;-63
2022/01/29 03:43:10;;;;;;;0.60;0.60;;;;;;;0.55;79.70;99101.30;369814;142;882192;-63
2022/01/29 03:44:10;;;;;;;0.66;0.60;;;;;;;0.46;78.98;99103.68;364591;147;857760;-63
2022/01/29 03:45:13;;;;;;;0.73;0.50;;;;;;;0.46;78.93;99108.77;363377;146;863931;-62
2022/01/29 03:46:17;;;;;;;1.01;0.50;;;;;;;0.44;78.82;99106.18;362991;146;858293;-63
2022/01/29 03:47:18;;;;;;;0.72;0.59;;;;;;;0.48;78.95;99105.41;364333;147;856039;-63
2022/01/29 03:48:20;;;;;;;0.60;0.60;;;;;;;0.56;78.98;99113.21;363851;146;857789;-63
2022/01/29 03:49:22;;;;;;;0.52;0.51;;;;;;;0.62;78.07;99115.88;363776;146;866697;-63
2022/01/29 03:50:24;;;;;;;0.50;0.50;;;;;;;0.71;78.12;99112.66;361891;146;859138;-63
2022/01/29 03:51:26;;;;;;;0.49;0.49;;;;;;;0.75;77.81;99116.10;362771;147;858789;-62
2022/01/29 03:52:28;;;;;;;0.65;0.50;;;;;;;0.78;77.47;99119.58;363267;146;857349;-63
2022/01/29 03:53:30;;;;;;;0.56;0.55;;;;;;;0.86;77.38;99119.70;365008;147;864791;-63
2022/01/29 03:54:31;;;;;;;0.73;0.73;;;;;;;0.94;77.15;99130.05;364072;147;864792;-63
2022/01/29 03:55:33;;;;;;;0.86;0.63;;;;;;;;;;364313;146;859974;-64
2022/01/29 03:56:35;;;;;;;0.40;0.40;;;;;;;;;;363993;147;859010;-63
2022/01/29 04:03:11;;;;;;;0.66;0.61;;;;;;;1.32;75.61;99134.94;369863;141;880366;-63
2022/01/29 04:04:12;;;;;;;0.93;0.61;;;;;;;1.14;75.29;99133.80;363030;147;857513;-63
2022/01/29 04:05:14;;;;;;;0.79;0.60;;;;;;;1.08;75.30;99141.34;362381;147;857399;-62
2022/01/29 04:06:17;;;;;;;0.58;0.56;;;;;;;1.08;75.66;99143.89;363368;146;867244;-63
2022/01/29 04:07:19;;;;;;;1.03;0.60;;;;;;;1.09;75.86;99139.67;361955;146;857325;-63
2022/01/29 04:08:21;;;;;;;3.94;0.59;;;;;;;1.12;75.95;99158.41;363583;147;859042;-63
2022/01/29 04:09:23;;;;;;;0.50;0.50;;;;;;;1.15;75.73;99147.42;363619;147;857515;-63
2022/01/29 04:10:28;;;;;;;0.57;0.51;;;;;;;1.13;75.97;99164.39;362957;146;858567;-63
2022/01/29 04:11:29;;;;;;;0.59;0.51;;;;;;;1.12;76.17;99158.41;362121;147;857194;-63
2022/01/29 04:12:37;;;;;;;1.37;0.63;;;;;;;1.19;76.43;99155.97;363620;147;858596;-63
2022/01/29 04:13:37;;;;;;;0.84;0.50;;;;;;;1.21;76.14;99151.75;362408;146;858293;-62
2022/01/29 04:14:39;;;;;;;2.15;0.55;;;;;;;1.29;76.39;99152.74;362057;147;864906;-63
2022/01/29 04:15:41;;;;;;;0.95;0.50;;;;;;;1.33;76.02;99151.12;361091;147;865014;-63
2022/01/29 04:16:43;;;;;;;0.40;0.40;;;;;;;1.39;76.05;99158.87;363184;147;859375;-63
2022/01/29 04:17:45;;;;;;;0.45;0.39;;;;;;;1.46;75.97;99158.13;362767;147;857265;-63
2022/01/29 04:18:47;;;;;;;0.40;0.40;;;;;;;1.51;75.68;99160.73;361820;147;864987;-63
2022/01/29 04:19:48;;;;;;;0.42;0.34;;;;;;;;;;363010;147;864879;-62
2022/01/29 04:20:50;;;;;;;0.51;0.42;;;;;;;;;;362849;146;865067;-63
2022/01/29 04:21:52;;;;;;;0.80;0.45;;;;;;;;;;361841;147;857491;-63
2022/01/29 04:22:53;;;;;;;0.58;0.54;;;;;;;;;;357035;148;859187;-63
2022/01/29 04:23:55;;;;;;;1.02;0.41;;;;;;;;;;357372;149;865831;-63
2022/01/29 04:24:56;;;;;;;0.56;0.56;;;;;;;;;;363556;146;865733;-63
2022/01/29 04:25:59;;;;;;;0.40;0.40;;;;;;;;;;364979;147;865663;-62
2022/01/29 04:27:04;;;;;;;0.59;0.54;;;;;;;;;;362812;146;865349;-63
2022/01/29 04:28:06;;;;;;;0.93;0.47;;;;;;;;;;364484;146;856209;-63
2022/01/29 04:29:09;;;;;;;0.60;0.60;;;;;;;;;;361795;146;858294;-62
2022/01/29 04:30:18;;;;;;;0.82;0.42;;;;;;;;;;361592;147;863874;-62
2022/01/29 04:31:18;;;;;;;0.99;0.59;;;;;;;;;;362198;146;859067;-62
2022/01/29 04:32:31;;;;;;;0.60;0.56;;;;;;;;;;363238;147;857254;-62
2022/01/29 04:33:30;;;;;;;0.63;0.61;;;;;;;;;;362457;147;859419;-62
2022/01/29 04:34:32;;;;;;;0.80;0.70;;;;;;;;;;362147;146;857341;-64
2022/01/29 04:35:34;;;;;;;1.43;0.50;;;;;;;;;;364319;146;859485;-62
2022/01/29 04:36:36;;;;;;;0.94;0.72;;;;;;;;;;363462;144;857219;-63
2022/01/29 04:37:37;;;;;;;0.71;0.71;;;;;;;;;;364793;147;864844;-63
2022/01/29 04:38:39;;;;;;;1.94;0.74;;;;;;;;;;363608;147;857406;-63
2022/01/29 04:39:40;;;;;;;0.90;0.60;;;;;;;;;;364211;147;858919;-62
2022/01/29 04:40:42;;;;;;;0.75;0.75;;;;;;;;;;363002;147;857505;-62
2022/01/29 04:41:44;;;;;;;0.93;0.69;;;;;;;;;;362170;146;864876;-62
2022/01/29 04:42:45;;;;;;;0.60;0.60;;;;;;;;;;364498;146;865837;-62
2022/01/29 04:43:47;;;;;;;0.69;0.69;;;;;;;;;;364116;147;864985;-62
2022/01/29 04:44:49;;;;;;;0.62;0.62;;;;;;;;;;364505;146;865800;-62
2022/01/29 04:45:50;;;;;;;0.79;0.73;;;;;;;;;;364700;146;864955;-62
2022/01/29 04:46:52;;;;;;;0.53;0.52;;;;;;;;;;362810;146;857500;-62
2022/01/29 04:47:53;;;;;;;1.19;0.76;;;;;;;;;;361629;146;859319;-63
2022/01/29 04:48:55;;;;;;;0.74;0.74;;;;;;;;;;363784;146;865489;-63
2022/01/29 04:49:57;;;;;;;1.04;0.84;;;;;;;;;;361890;146;857576;-63
2022/01/29 04:50:58;;;;;;;0.68;0.63;;;;;;;;;;363945;146;866345;-63
2022/01/29 04:52:00;;;;;;;3.27;1.32;;;;;;;;;;363020;146;856712;-63
2022/01/29 04:53:02;;;;;;;1.04;0.73;;;;;;;;;;362602;146;859493;-63
2022/01/29 04:54:04;;;;;;;1.04;0.80;;;;;;;;;;360955;147;856508;-63
2022/01/29 04:55:06;;;;;;;1.09;0.74;;;;;;;;;;362797;147;857195;-64
2022/01/29 04:56:08;;;;;;;0.65;0.65;;;;;;;;;;363903;146;861990;-64
2022/01/29 04:57:09;;;;;;;0.86;0.86;;;;;;;;;;360035;147;865840;-64
2022/01/29 04:58:11;;;;;;;2.06;0.69;;;;;;;;;;364056;147;857817;-64
2022/01/29 04:59:13;;;;;;;0.62;0.57;;;;;;;;;;364176;146;857465;-64
2022/01/29 05:00:22;;;;;;;0.69;0.69;;;;;;;;;;364043;146;859393;-64
2022/01/29 05:01:24;;;;;;;0.70;0.70;;;;;;;;;;363221;147;857609;-64
2022/01/29 05:02:25;;;;;;;0.60;0.60;;;;;;;;;;363458;146;857685;-63
2022/01/29 05:03:27;;;;;;;1.03;0.59;;;;;;;;;;361353;146;865410;-64
2022/01/29 05:04:29;;;;;;;1.20;0.53;;;;;;;;;;358391;147;856304;-64
2022/01/29 05:05:30;;;;;;;0.99;0.79;;;;;;;;;;358795;147;858474;-64
2022/01/29 05:06:32;;;;;;;0.83;0.83;;;;;;;;;;360506;147;865837;-64
2022/01/29 05:07:34;;;;;;;1.26;0.90;;;;;;;;;;359985;146;857251;-64
2022/01/29 05:08:39;;;;;;;0.79;0.75;;;;;;;;;;361214;146;857411;-64
2022/01/29 05:09:40;;;;;;;1.31;0.91;;;;;;;;;;361534;147;860811;-64
2022/01/29 05:10:42;;;;;;;0.76;0.70;;;;;;;;;;358277;148;858645;-63
2022/01/29 05:11:47;;;;;;;0.49;0.42;;;;;;;;;;350139;152;864874;-64
2022/01/29 05:13:51;;;;;;;1.38;0.98;;;;;;;;;;350949;151;857368;-64
2022/01/29 05:27:44;;;;;;;1.10;0.64;;;;;;;;;;348277;151;857367;-64
2022/01/29 05:28:46;;;;;;;1.00;0.74;;;;;;;;;;351080;150;857257;-64
2022/01/29 05:29:47;;;;;;;0.69;0.69;;;;;;;;;;345672;152;864879;-64
2022/01/29 05:30:49;;;;;;;3.49;0.70;;;;;;;;;;347494;152;857374;-64
2022/01/29 05:31:51;;;;;;;0.51;0.51;;;;;;;;;;345421;153;857311;-64
2022/01/29 05:32:53;;;;;;;0.60;0.60;;;;;;;;;;351775;150;859273;-64
2022/01/29 05:33:54;;;;;;;1.01;0.86;;;;;;;;;;351944;150;857776;-64
2022/01/29 05:34:56;;;;;;;1.83;0.70;;;;;;;;;;345925;152;865239;-64
2022/01/29 05:35:58;;;;;;;0.61;0.61;;;;;;;;;;351894;150;859187;-63
2022/01/29 05:37:01;;;;;;;0.63;0.63;;;;;;;;;;352061;151;864729;-64
2022/01/29 05:38:03;;;;;;;1.26;0.71;;;;;;;;;;344549;152;864856;-63
2022/01/29 05:39:04;;;;;;;0.60;0.60;;;;;;;;;;344468;153;866605;-64
2022/01/29 05:40:07;;;;;;;2.12;0.85;;;;;;;;;;346258;153;866088;-64
2022/01/29 05:41:09;;;;;;;0.73;0.73;;;;;;;;;;348579;151;856048;-64
2022/01/29 05:42:11;;;;;;;0.59;0.59;;;;;;;;;;348981;150;865778;-63
2022/01/29 05:43:12;;;;;;;0.81;0.80;;;;;;;;;;349096;150;864876;-64
2022/01/29 05:44:14;;;;;;;0.62;0.62;;;;;;;;;;349502;151;858353;-63
2022/01/29 05:45:15;;;;;;;0.86;0.79;;;;;;;;;;348866;151;856623;-62
2022/01/29 05:46:17;;;;;;;0.85;0.81;;;;;;;;;;349398;153;865696;-64
2022/01/29 05:47:19;;;;;;;1.07;0.77;;;;;;;;;;349873;151;858833;-62
2022/01/29 05:48:21;;;;;;;0.93;0.73;;;;;;;;;;351871;151;866047;-62
2022/01/29 05:49:22;;;;;;;0.49;0.49;;;;;;;;;;347176;152;857620;-63
2022/01/29 05:50:25;;;;;;;2.07;0.82;;;;;;;;;;349438;151;861115;-63
2022/01/29 05:51:29;;;;;;;0.69;0.69;;;;;;;;;;349967;151;856577;-62
2022/01/29 05:52:32;;;;;;;0.87;0.70;;;;;;;;;;348764;151;864855;-62
2022/01/29 05:53:34;;;;;;;0.91;0.61;;;;;;;;;;349233;152;866698;-63
2022/01/29 05:54:35;;;;;;;1.31;0.76;;;;;;;;;;348222;152;857203;-63
2022/01/29 05:55:37;;;;;;;0.57;0.57;;;;;;;;;;349285;151;866196;-63
2022/01/29 05:56:39;;;;;;;0.73;0.71;;;;;;;;;;350001;151;864885;-63
2022/01/29 05:57:40;;;;;;;0.62;0.61;;;;;;;;;;349594;151;864848;-63
2022/01/29 05:58:42;;;;;;;1.48;0.83;;;;;;;;;;350937;151;857444;-63
2022/01/29 05:59:43;;;;;;;1.04;0.83;;;;;;;;;;347934;151;866044;-62
2022/01/29 06:00:45;;;;;;;1.13;0.89;;;;;;;;;;348270;152;858477;-63
2022/01/29 06:01:47;;;;;;;0.79;0.74;;;;;;;;;;348553;151;866213;-63
2022/01/29 06:03:04;;;;;;;0.61;0.61;;;;;;;;;;349198;151;864949;-63
2022/01/29 06:04:06;;;;;;;0.82;0.70;;;;;;;;;;344596;152;861728;-63
2022/01/29 06:05:07;;;;;;;1.19;0.95;;;;;;;;;;347612;152;857661;-62
2022/01/29 06:06:10;;;;;;;0.79;0.79;;;;;;;;;;346050;152;865484;-64
2022/01/29 06:07:11;;;;;;;0.76;0.75;;;;;;;;;;344697;152;857776;-62
2022/01/29 06:08:13;;;;;;;1.91;0.64;;;;;;;;;;349918;152;865688;-63
2022/01/29 06:09:15;;;;;;;0.75;0.69;;;;;;;;;;344246;154;866367;-63
2022/01/29 06:10:17;;;;;;;0.97;0.69;;;;;;;;;;350844;152;858707;-63
2022/01/29 06:11:19;;;;;;;0.65;0.57;;;;;;;;;;351132;152;857630;-63
2022/01/29 06:12:20;;;;;;;1.11;0.75;;;;;;;;;;342892;154;866817;-63
2022/01/29 06:13:22;;;;;;;1.07;0.79;;;;;;;;;;347188;154;859060;-63
2022/01/29 06:14:24;;;;;;;0.61;0.61;;;;;;;;;;344775;154;866008;-63
2022/01/29 06:15:25;;;;;;;1.02;0.59;;;;;;;;;;344911;152;864879;-63
2022/01/29 06:16:27;;;;;;;1.39;1.02;;;;;;;;;;346928;152;863592;-63
2022/01/29 06:17:29;;;;;;;0.90;0.65;;;;;;;;;;344605;154;856057;-63
2022/01/29 06:18:31;;;;;;;0.95;0.69;;;;;;;;;;342304;154;864266;-64